Weogufka, Alabama
Current Conditions -  °F | °C
As of 4:15 PM on Tuesday 25 Nov 2014 (Local Time) from KSCD Reporting Station
Clear Clear  
Wind Chill: 57°   Ceiling: Unl
Heat Index: 57°   Visibility: 10mi
Dew Point: 30°   Wind: 6mph
Humidity: 37%   Direction: 330°NNW
Pressure: 30.03"   Gusts: NA
Location:  33.02°N, 86.31°W
Report Text: KSCD 252215Z AUTO 33005KT 10SM CLR 14/M01 A3003 RMK AO2 T01371009
Loading
Personal Weather Stations






























Interactive Weather Map New forecast layout! Learn more

10-Day Weather Forecast

Advertisements
Track Severe Weather on mobile